sensor_id;sensor_type;location;lat;lon;timestamp;P1;durP1;ratioP1;P2;durP2;ratioP2
23370;SDS011;11858;51.056;3.712;2023-04-03T00:01:06;2.10;;;2.00;;
23370;SDS011;11858;51.056;3.712;2023-04-03T00:03:32;2.10;;;2.00;;
23370;SDS011;11858;51.056;3.712;2023-04-03T00:05:58;1.70;;;1.70;;
23370;SDS011;11858;51.056;3.712;2023-04-03T00:08:24;1.83;;;1.80;;
23370;SDS011;11858;51.056;3.712;2023-04-03T00:10:50;2.00;;;1.90;;
23370;SDS011;11858;51.056;3.712;2023-04-03T00:13:16;2.28;;;2.17;;
23370;SDS011;11858;51.056;3.712;2023-04-03T00:15:42;1.98;;;1.88;;
23370;SDS011;11858;51.056;3.712;2023-04-03T00:18:09;2.00;;;1.90;;
23370;SDS011;11858;51.056;3.712;2023-04-03T00:20:35;2.10;;;2.00;;
23370;SDS011;11858;51.056;3.712;2023-04-03T00:23:01;2.33;;;2.22;;
23370;SDS011;11858;51.056;3.712;2023-04-03T00:25:27;2.20;;;2.10;;
23370;SDS011;11858;51.056;3.712;2023-04-03T00:27:54;2.40;;;2.30;;
23370;SDS011;11858;51.056;3.712;2023-04-03T00:30:20;2.55;;;2.45;;
23370;SDS011;11858;51.056;3.712;2023-04-03T00:32:50;2.50;;;2.40;;
23370;SDS011;11858;51.056;3.712;2023-04-03T00:35:17;2.77;;;2.67;;
23370;SDS011;11858;51.056;3.712;2023-04-03T00:37:44;2.60;;;2.50;;
23370;SDS011;11858;51.056;3.712;2023-04-03T00:40:12;3.40;;;3.30;;
23370;SDS011;11858;51.056;3.712;2023-04-03T00:42:40;3.00;;;2.90;;
23370;SDS011;11858;51.056;3.712;2023-04-03T00:45:26;3.30;;;3.20;;
23370;SDS011;11858;51.056;3.712;2023-04-03T00:47:52;2.65;;;2.55;;
23370;SDS011;11858;51.056;3.712;2023-04-03T00:50:19;3.90;;;3.70;;
23370;SDS011;11858;51.056;3.712;2023-04-03T00:52:45;3.10;;;3.00;;
23370;SDS011;11858;51.056;3.712;2023-04-03T00:55:13;2.70;;;2.60;;
23370;SDS011;11858;51.056;3.712;2023-04-03T00:57:39;2.63;;;2.53;;
23370;SDS011;11858;51.056;3.712;2023-04-03T01:00:10;3.20;;;3.10;;
23370;SDS011;11858;51.056;3.712;2023-04-03T01:02:38;2.85;;;2.75;;
23370;SDS011;11858;51.056;3.712;2023-04-03T01:05:06;2.60;;;2.50;;
23370;SDS011;11858;51.056;3.712;2023-04-03T01:07:32;3.50;;;3.30;;
23370;SDS011;11858;51.056;3.712;2023-04-03T01:10:01;2.70;;;2.60;;
23370;SDS011;11858;51.056;3.712;2023-04-03T01:12:30;2.83;;;2.72;;
23370;SDS011;11858;51.056;3.712;2023-04-03T01:14:59;2.50;;;2.40;;
23370;SDS011;11858;51.056;3.712;2023-04-03T01:17:33;3.17;;;3.08;;
23370;SDS011;11858;51.056;3.712;2023-04-03T01:28:10;3.70;;;3.50;;
23370;SDS011;11858;51.056;3.712;2023-04-03T01:30:41;2.95;;;2.85;;
23370;SDS011;11858;51.056;3.712;2023-04-03T01:33:27;3.72;;;3.45;;
23370;SDS011;11858;51.056;3.712;2023-04-03T01:35:53;2.42;;;2.33;;
23370;SDS011;11858;51.056;3.712;2023-04-03T01:38:19;2.72;;;2.63;;
23370;SDS011;11858;51.056;3.712;2023-04-03T01:40:45;3.33;;;3.22;;
23370;SDS011;11858;51.056;3.712;2023-04-03T01:43:11;3.70;;;3.50;;
23370;SDS011;11858;51.056;3.712;2023-04-03T01:45:37;2.88;;;2.78;;
23370;SDS011;11858;51.056;3.712;2023-04-03T01:48:03;3.15;;;3.00;;
23370;SDS011;11858;51.056;3.712;2023-04-03T01:50:29;2.40;;;2.30;;
23370;SDS011;11858;51.056;3.712;2023-04-03T01:52:55;3.50;;;3.35;;
23370;SDS011;11858;51.056;3.712;2023-04-03T01:55:21;3.40;;;3.20;;
23370;SDS011;11858;51.056;3.712;2023-04-03T01:57:46;3.42;;;3.33;;
23370;SDS011;11858;51.056;3.712;2023-04-03T02:00:12;3.15;;;3.05;;
23370;SDS011;11858;51.056;3.712;2023-04-03T02:02:39;3.30;;;3.20;;
23370;SDS011;11858;51.056;3.712;2023-04-03T02:05:05;3.05;;;2.92;;
23370;SDS011;11858;51.056;3.712;2023-04-03T02:07:31;2.92;;;2.83;;
23370;SDS011;11858;51.056;3.712;2023-04-03T02:09:57;3.20;;;3.05;;
23370;SDS011;11858;51.056;3.712;2023-04-03T02:12:23;3.28;;;3.08;;
23370;SDS011;11858;51.056;3.712;2023-04-03T02:14:48;3.58;;;3.17;;
23370;SDS011;11858;51.056;3.712;2023-04-03T02:17:14;2.60;;;2.50;;
23370;SDS011;11858;51.056;3.712;2023-04-03T02:19:40;2.40;;;2.30;;
23370;SDS011;11858;51.056;3.712;2023-04-03T02:22:06;2.50;;;2.40;;
23370;SDS011;11858;51.056;3.712;2023-04-03T02:24:32;2.50;;;2.40;;
23370;SDS011;11858;51.056;3.712;2023-04-03T02:26:58;2.40;;;2.30;;
23370;SDS011;11858;51.056;3.712;2023-04-03T02:29:24;2.30;;;2.20;;
23370;SDS011;11858;51.056;3.712;2023-04-03T02:31:50;2.35;;;2.25;;
23370;SDS011;11858;51.056;3.712;2023-04-03T02:34:16;2.47;;;2.38;;
23370;SDS011;11858;51.056;3.712;2023-04-03T02:36:42;2.90;;;2.80;;
23370;SDS011;11858;51.056;3.712;2023-04-03T02:39:08;2.40;;;2.30;;
23370;SDS011;11858;51.056;3.712;2023-04-03T02:41:34;2.33;;;2.22;;
23370;SDS011;11858;51.056;3.712;2023-04-03T02:44:04;2.63;;;2.53;;
23370;SDS011;11858;51.056;3.712;2023-04-03T02:46:34;2.78;;;2.60;;
23370;SDS011;11858;51.056;3.712;2023-04-03T02:49:00;2.70;;;2.60;;
23370;SDS011;11858;51.056;3.712;2023-04-03T02:51:25;2.30;;;2.20;;
23370;SDS011;11858;51.056;3.712;2023-04-03T02:53:51;2.22;;;2.13;;
23370;SDS011;11858;51.056;3.712;2023-04-03T02:56:17;2.90;;;2.80;;
23370;SDS011;11858;51.056;3.712;2023-04-03T02:58:44;2.90;;;2.80;;
23370;SDS011;11858;51.056;3.712;2023-04-03T03:01:10;2.90;;;2.80;;
23370;SDS011;11858;51.056;3.712;2023-04-03T03:03:36;3.40;;;3.30;;
23370;SDS011;11858;51.056;3.712;2023-04-03T03:08:32;3.30;;;3.20;;
23370;SDS011;11858;51.056;3.712;2023-04-03T03:10:58;3.20;;;3.10;;
23370;SDS011;11858;51.056;3.712;2023-04-03T03:13:24;3.60;;;3.42;;
23370;SDS011;11858;51.056;3.712;2023-04-03T03:15:50;3.47;;;3.35;;
23370;SDS011;11858;51.056;3.712;2023-04-03T03:18:16;3.65;;;3.45;;
23370;SDS011;11858;51.056;3.712;2023-04-03T03:20:41;3.20;;;3.10;;
23370;SDS011;11858;51.056;3.712;2023-04-03T03:23:07;3.30;;;3.20;;
23370;SDS011;11858;51.056;3.712;2023-04-03T03:25:33;3.10;;;3.00;;
23370;SDS011;11858;51.056;3.712;2023-04-03T03:28:02;5.80;;;5.50;;
23370;SDS011;11858;51.056;3.712;2023-04-03T03:30:28;4.28;;;4.07;;
23370;SDS011;11858;51.056;3.712;2023-04-03T03:32:54;4.60;;;4.40;;
23370;SDS011;11858;51.056;3.712;2023-04-03T03:35:20;3.30;;;3.20;;
23370;SDS011;11858;51.056;3.712;2023-04-03T03:37:45;3.40;;;3.30;;
23370;SDS011;11858;51.056;3.712;2023-04-03T03:40:11;3.20;;;3.10;;
23370;SDS011;11858;51.056;3.712;2023-04-03T03:42:38;3.45;;;3.35;;
23370;SDS011;11858;51.056;3.712;2023-04-03T03:45:04;3.42;;;3.33;;
23370;SDS011;11858;51.056;3.712;2023-04-03T03:47:30;3.28;;;3.17;;
23370;SDS011;11858;51.056;3.712;2023-04-03T03:49:56;2.55;;;2.45;;
23370;SDS011;11858;51.056;3.712;2023-04-03T03:52:22;2.92;;;2.83;;
23370;SDS011;11858;51.056;3.712;2023-04-03T03:54:48;3.15;;;3.05;;
23370;SDS011;11858;51.056;3.712;2023-04-03T03:57:14;3.28;;;3.17;;
23370;SDS011;11858;51.056;3.712;2023-04-03T03:59:40;2.90;;;2.80;;
23370;SDS011;11858;51.056;3.712;2023-04-03T04:02:07;2.65;;;2.55;;
23370;SDS011;11858;51.056;3.712;2023-04-03T04:04:33;3.10;;;3.00;;
23370;SDS011;11858;51.056;3.712;2023-04-03T04:06:58;2.78;;;2.67;;
23370;SDS011;11858;51.056;3.712;2023-04-03T04:09:25;2.83;;;2.72;;
23370;SDS011;11858;51.056;3.712;2023-04-03T04:11:51;2.92;;;2.83;;
23370;SDS011;11858;51.056;3.712;2023-04-03T04:14:17;3.10;;;3.00;;
23370;SDS011;11858;51.056;3.712;2023-04-03T04:16:45;2.58;;;2.47;;
23370;SDS011;11858;51.056;3.712;2023-04-03T04:19:14;2.15;;;2.05;;
23370;SDS011;11858;51.056;3.712;2023-04-03T04:21:40;2.17;;;2.08;;
23370;SDS011;11858;51.056;3.712;2023-04-03T04:24:06;2.30;;;2.20;;
23370;SDS011;11858;51.056;3.712;2023-04-03T04:26:33;2.10;;;2.00;;
23370;SDS011;11858;51.056;3.712;2023-04-03T04:28:59;2.20;;;2.10;;
23370;SDS011;11858;51.056;3.712;2023-04-03T04:31:25;2.40;;;2.30;;
23370;SDS011;11858;51.056;3.712;2023-04-03T04:33:51;2.25;;;2.15;;
23370;SDS011;11858;51.056;3.712;2023-04-03T04:36:17;2.50;;;2.40;;
23370;SDS011;11858;51.056;3.712;2023-04-03T04:38:43;2.00;;;1.90;;
23370;SDS011;11858;51.056;3.712;2023-04-03T04:41:09;1.73;;;1.73;;
23370;SDS011;11858;51.056;3.712;2023-04-03T04:43:35;2.10;;;2.00;;
23370;SDS011;11858;51.056;3.712;2023-04-03T04:48:31;2.30;;;2.20;;
23370;SDS011;11858;51.056;3.712;2023-04-03T04:50:57;1.60;;;1.60;;
23370;SDS011;11858;51.056;3.712;2023-04-03T04:53:23;1.73;;;1.73;;
23370;SDS011;11858;51.056;3.712;2023-04-03T04:55:49;1.83;;;1.80;;
23370;SDS011;11858;51.056;3.712;2023-04-03T04:58:14;1.90;;;1.80;;
23370;SDS011;11858;51.056;3.712;2023-04-03T05:00:40;1.63;;;1.63;;
23370;SDS011;11858;51.056;3.712;2023-04-03T05:03:06;1.90;;;1.80;;
23370;SDS011;11858;51.056;3.712;2023-04-03T05:05:32;1.58;;;1.58;;
23370;SDS011;11858;51.056;3.712;2023-04-03T05:07:58;1.70;;;1.70;;
23370;SDS011;11858;51.056;3.712;2023-04-03T05:10:24;2.30;;;2.20;;
23370;SDS011;11858;51.056;3.712;2023-04-03T05:12:50;1.70;;;1.70;;
23370;SDS011;11858;51.056;3.712;2023-04-03T05:15:16;1.50;;;1.50;;
23370;SDS011;11858;51.056;3.712;2023-04-03T05:17:42;1.50;;;1.50;;
23370;SDS011;11858;51.056;3.712;2023-04-03T05:20:08;1.40;;;1.40;;
23370;SDS011;11858;51.056;3.712;2023-04-03T05:22:34;1.40;;;1.40;;
23370;SDS011;11858;51.056;3.712;2023-04-03T05:24:59;1.50;;;1.50;;
23370;SDS011;11858;51.056;3.712;2023-04-03T05:27:25;1.42;;;1.42;;
23370;SDS011;11858;51.056;3.712;2023-04-03T05:29:53;1.50;;;1.50;;
23370;SDS011;11858;51.056;3.712;2023-04-03T05:32:20;1.60;;;1.60;;
23370;SDS011;11858;51.056;3.712;2023-04-03T05:34:47;2.75;;;2.58;;
23370;SDS011;11858;51.056;3.712;2023-04-03T05:37:13;1.30;;;1.30;;
23370;SDS011;11858;51.056;3.712;2023-04-03T05:39:38;1.40;;;1.40;;
23370;SDS011;11858;51.056;3.712;2023-04-03T05:42:06;1.27;;;1.27;;
23370;SDS011;11858;51.056;3.712;2023-04-03T05:44:32;1.48;;;1.45;;
23370;SDS011;11858;51.056;3.712;2023-04-03T05:46:58;1.50;;;1.50;;
23370;SDS011;11858;51.056;3.712;2023-04-03T05:49:24;1.33;;;1.33;;
23370;SDS011;11858;51.056;3.712;2023-04-03T05:51:50;1.40;;;1.40;;
23370;SDS011;11858;51.056;3.712;2023-04-03T05:54:23;1.20;;;1.20;;
23370;SDS011;11858;51.056;3.712;2023-04-03T05:56:51;1.30;;;1.30;;
23370;SDS011;11858;51.056;3.712;2023-04-03T05:59:17;1.10;;;1.10;;
23370;SDS011;11858;51.056;3.712;2023-04-03T06:01:44;1.63;;;1.52;;
23370;SDS011;11858;51.056;3.712;2023-04-03T06:04:10;1.02;;;1.02;;
23370;SDS011;11858;51.056;3.712;2023-04-03T06:09:20;1.27;;;1.27;;
23370;SDS011;11858;51.056;3.712;2023-04-03T06:11:48;1.30;;;1.30;;
23370;SDS011;11858;51.056;3.712;2023-04-03T06:14:13;1.42;;;1.42;;
23370;SDS011;11858;51.056;3.712;2023-04-03T06:16:39;1.33;;;1.33;;
23370;SDS011;11858;51.056;3.712;2023-04-03T06:19:06;1.45;;;1.42;;
23370;SDS011;11858;51.056;3.712;2023-04-03T06:21:33;2.03;;;1.95;;
23370;SDS011;11858;51.056;3.712;2023-04-03T06:24:00;1.30;;;1.30;;
23370;SDS011;11858;51.056;3.712;2023-04-03T06:26:27;1.23;;;1.23;;
23370;SDS011;11858;51.056;3.712;2023-04-03T06:28:54;1.50;;;1.50;;
23370;SDS011;11858;51.056;3.712;2023-04-03T06:31:20;1.40;;;1.40;;
23370;SDS011;11858;51.056;3.712;2023-04-03T06:33:45;1.50;;;1.50;;
23370;SDS011;11858;51.056;3.712;2023-04-03T06:36:11;2.40;;;2.30;;
23370;SDS011;11858;51.056;3.712;2023-04-03T06:38:37;2.05;;;1.95;;
23370;SDS011;11858;51.056;3.712;2023-04-03T06:41:03;2.30;;;2.20;;
23370;SDS011;11858;51.056;3.712;2023-04-03T06:43:29;2.15;;;2.05;;
23370;SDS011;11858;51.056;3.712;2023-04-03T06:45:56;3.03;;;2.83;;
23370;SDS011;11858;51.056;3.712;2023-04-03T06:48:22;4.53;;;4.07;;
23370;SDS011;11858;51.056;3.712;2023-04-03T06:50:48;2.30;;;2.20;;
23370;SDS011;11858;51.056;3.712;2023-04-03T06:53:14;2.60;;;2.50;;
23370;SDS011;11858;51.056;3.712;2023-04-03T06:55:40;3.60;;;3.40;;
23370;SDS011;11858;51.056;3.712;2023-04-03T06:58:06;3.47;;;2.95;;
23370;SDS011;11858;51.056;3.712;2023-04-03T07:00:32;3.20;;;3.10;;
23370;SDS011;11858;51.056;3.712;2023-04-03T07:02:58;2.78;;;2.67;;
23370;SDS011;11858;51.056;3.712;2023-04-03T07:05:24;3.90;;;3.70;;
23370;SDS011;11858;51.056;3.712;2023-04-03T07:07:50;3.40;;;3.30;;
23370;SDS011;11858;51.056;3.712;2023-04-03T07:10:16;4.78;;;4.57;;
23370;SDS011;11858;51.056;3.712;2023-04-03T07:12:42;4.60;;;4.30;;
23370;SDS011;11858;51.056;3.712;2023-04-03T07:15:08;6.60;;;6.30;;
23370;SDS011;11858;51.056;3.712;2023-04-03T07:17:34;7.15;;;6.50;;
23370;SDS011;11858;51.056;3.712;2023-04-03T07:20:02;8.45;;;7.90;;
23370;SDS011;11858;51.056;3.712;2023-04-03T07:22:29;8.20;;;7.80;;
23370;SDS011;11858;51.056;3.712;2023-04-03T07:24:55;11.15;;;10.48;;
23370;SDS011;11858;51.056;3.712;2023-04-03T07:27:20;12.65;;;11.85;;
23370;SDS011;11858;51.056;3.712;2023-04-03T07:29:46;15.05;;;14.15;;
23370;SDS011;11858;51.056;3.712;2023-04-03T07:32:13;17.20;;;16.10;;
23370;SDS011;11858;51.056;3.712;2023-04-03T07:34:40;22.98;;;21.38;;
23370;SDS011;11858;51.056;3.712;2023-04-03T07:37:06;27.05;;;24.73;;
23370;SDS011;11858;51.056;3.712;2023-04-03T07:39:34;28.17;;;26.08;;
23370;SDS011;11858;51.056;3.712;2023-04-03T07:41:59;30.98;;;28.65;;
23370;SDS011;11858;51.056;3.712;2023-04-03T07:44:26;34.40;;;31.70;;
23370;SDS011;11858;51.056;3.712;2023-04-03T07:46:52;32.60;;;30.05;;
23370;SDS011;11858;51.056;3.712;2023-04-03T07:49:20;36.25;;;33.35;;
23370;SDS011;11858;51.056;3.712;2023-04-03T07:51:48;36.90;;;34.10;;
23370;SDS011;11858;51.056;3.712;2023-04-03T07:54:14;36.22;;;33.53;;
23370;SDS011;11858;51.056;3.712;2023-04-03T07:56:40;37.15;;;34.35;;
23370;SDS011;11858;51.056;3.712;2023-04-03T07:59:07;38.25;;;35.35;;
23370;SDS011;11858;51.056;3.712;2023-04-03T08:01:34;37.42;;;34.63;;
23370;SDS011;11858;51.056;3.712;2023-04-03T08:04:00;37.67;;;34.78;;
23370;SDS011;11858;51.056;3.712;2023-04-03T08:06:26;37.45;;;34.65;;
23370;SDS011;11858;51.056;3.712;2023-04-03T08:08:54;37.75;;;34.75;;
23370;SDS011;11858;51.056;3.712;2023-04-03T08:11:20;37.00;;;33.83;;
23370;SDS011;11858;51.056;3.712;2023-04-03T08:13:46;29.38;;;27.17;;
23370;SDS011;11858;51.056;3.712;2023-04-03T08:16:12;21.40;;;19.90;;
23370;SDS011;11858;51.056;3.712;2023-04-03T08:18:42;21.10;;;19.70;;
23370;SDS011;11858;51.056;3.712;2023-04-03T08:21:08;22.90;;;21.27;;
23370;SDS011;11858;51.056;3.712;2023-04-03T08:23:35;20.70;;;19.35;;
23370;SDS011;11858;51.056;3.712;2023-04-03T08:26:12;20.38;;;19.00;;
23370;SDS011;11858;51.056;3.712;2023-04-03T08:28:42;19.50;;;18.30;;
23370;SDS011;11858;51.056;3.712;2023-04-03T08:31:10;19.63;;;18.42;;
23370;SDS011;11858;51.056;3.712;2023-04-03T08:33:38;19.02;;;17.83;;
23370;SDS011;11858;51.056;3.712;2023-04-03T08:36:06;19.00;;;17.80;;
23370;SDS011;11858;51.056;3.712;2023-04-03T08:38:33;18.90;;;17.70;;
23370;SDS011;11858;51.056;3.712;2023-04-03T08:41:15;18.38;;;17.17;;
23370;SDS011;11858;51.056;3.712;2023-04-03T08:46:39;17.90;;;16.80;;
23370;SDS011;11858;51.056;3.712;2023-04-03T08:49:32;17.23;;;16.23;;
23370;SDS011;11858;51.056;3.712;2023-04-03T08:52:02;17.80;;;16.70;;
23370;SDS011;11858;51.056;3.712;2023-04-03T08:54:34;17.55;;;16.50;;
23370;SDS011;11858;51.056;3.712;2023-04-03T08:57:07;17.60;;;16.50;;
23370;SDS011;11858;51.056;3.712;2023-04-03T08:59:35;17.42;;;16.33;;
23370;SDS011;11858;51.056;3.712;2023-04-03T09:02:48;17.80;;;16.70;;
23370;SDS011;11858;51.056;3.712;2023-04-03T09:04:52;17.80;;;16.70;;
23370;SDS011;11858;51.056;3.712;2023-04-03T09:07:42;17.58;;;16.48;;
23370;SDS011;11858;51.056;3.712;2023-04-03T09:10:07;17.73;;;16.63;;
23370;SDS011;11858;51.056;3.712;2023-04-03T09:12:41;17.35;;;16.25;;
23370;SDS011;11858;51.056;3.712;2023-04-03T09:15:21;16.92;;;15.82;;
23370;SDS011;11858;51.056;3.712;2023-04-03T09:22:54;17.08;;;16.08;;
23370;SDS011;11858;51.056;3.712;2023-04-03T09:25:25;16.88;;;15.88;;
23370;SDS011;11858;51.056;3.712;2023-04-03T09:28:00;18.35;;;17.15;;
23370;SDS011;11858;51.056;3.712;2023-04-03T09:30:27;18.13;;;16.92;;
23370;SDS011;11858;51.056;3.712;2023-04-03T09:32:57;17.20;;;16.20;;
23370;SDS011;11858;51.056;3.712;2023-04-03T09:37:52;16.60;;;15.60;;
23370;SDS011;11858;51.056;3.712;2023-04-03T09:40:40;16.98;;;15.90;;
23370;SDS011;11858;51.056;3.712;2023-04-03T09:45:43;16.88;;;15.88;;
23370;SDS011;11858;51.056;3.712;2023-04-03T09:51:00;18.23;;;17.02;;
23370;SDS011;11858;51.056;3.712;2023-04-03T09:53:30;17.80;;;16.70;;
23370;SDS011;11858;51.056;3.712;2023-04-03T09:56:24;17.45;;;16.20;;
23370;SDS011;11858;51.056;3.712;2023-04-03T10:06:32;17.33;;;16.23;;
23370;SDS011;11858;51.056;3.712;2023-04-03T10:09:10;17.98;;;16.88;;
23370;SDS011;11858;51.056;3.712;2023-04-03T10:11:59;18.45;;;17.17;;
23370;SDS011;11858;51.056;3.712;2023-04-03T10:14:30;16.85;;;15.75;;
23370;SDS011;11858;51.056;3.712;2023-04-03T10:17:14;17.73;;;16.63;;
23370;SDS011;11858;51.056;3.712;2023-04-03T10:19:52;17.83;;;16.73;;
23370;SDS011;11858;51.056;3.712;2023-04-03T10:31:19;17.65;;;16.55;;
23370;SDS011;11858;51.056;3.712;2023-04-03T10:34:06;16.60;;;15.60;;
23370;SDS011;11858;51.056;3.712;2023-04-03T10:36:53;16.88;;;15.85;;
23370;SDS011;11858;51.056;3.712;2023-04-03T10:47:17;17.10;;;15.95;;
23370;SDS011;11858;51.056;3.712;2023-04-03T10:50:01;16.30;;;15.30;;
23370;SDS011;11858;51.056;3.712;2023-04-03T10:52:37;16.85;;;15.85;;
23370;SDS011;11858;51.056;3.712;2023-04-03T10:58:27;16.30;;;15.30;;
23370;SDS011;11858;51.056;3.712;2023-04-03T11:01:01;16.77;;;15.75;;
23370;SDS011;11858;51.056;3.712;2023-04-03T11:03:35;18.88;;;17.65;;
23370;SDS011;11858;51.056;3.712;2023-04-03T11:06:10;16.55;;;15.32;;
23370;SDS011;11858;51.056;3.712;2023-04-03T11:08:50;16.63;;;15.48;;
23370;SDS011;11858;51.056;3.712;2023-04-03T11:11:32;16.40;;;15.40;;
23370;SDS011;11858;51.056;3.712;2023-04-03T11:14:11;16.17;;;15.18;;
23370;SDS011;11858;51.056;3.712;2023-04-03T11:22:53;16.90;;;15.90;;
23370;SDS011;11858;51.056;3.712;2023-04-03T11:25:26;16.88;;;15.80;;
23370;SDS011;11858;51.056;3.712;2023-04-03T11:27:58;16.70;;;15.70;;
23370;SDS011;11858;51.056;3.712;2023-04-03T11:33:32;18.10;;;16.80;;
23370;SDS011;11858;51.056;3.712;2023-04-03T11:36:29;16.38;;;15.38;;
23370;SDS011;11858;51.056;3.712;2023-04-03T11:38:59;17.05;;;15.95;;
23370;SDS011;11858;51.056;3.712;2023-04-03T11:41:32;16.63;;;15.63;;
23370;SDS011;11858;51.056;3.712;2023-04-03T11:52:54;16.73;;;15.73;;
23370;SDS011;11858;51.056;3.712;2023-04-03T12:13:36;17.15;;;16.05;;
23370;SDS011;11858;51.056;3.712;2023-04-03T12:16:05;15.40;;;14.50;;
23370;SDS011;11858;51.056;3.712;2023-04-03T12:21:15;15.77;;;14.77;;
23370;SDS011;11858;51.056;3.712;2023-04-03T12:24:01;16.25;;;15.25;;
23370;SDS011;11858;51.056;3.712;2023-04-03T12:26:47;16.27;;;15.27;;
23370;SDS011;11858;51.056;3.712;2023-04-03T12:45:49;17.25;;;16.15;;
23370;SDS011;11858;51.056;3.712;2023-04-03T12:48:24;19.15;;;17.75;;
23370;SDS011;11858;51.056;3.712;2023-04-03T12:50:52;16.60;;;15.60;;
23370;SDS011;11858;51.056;3.712;2023-04-03T12:53:19;16.98;;;15.88;;
23370;SDS011;11858;51.056;3.712;2023-04-03T12:55:53;17.27;;;16.17;;
23370;SDS011;11858;51.056;3.712;2023-04-03T12:58:22;16.75;;;15.75;;
23370;SDS011;11858;51.056;3.712;2023-04-03T13:03:51;16.33;;;15.23;;
23370;SDS011;11858;51.056;3.712;2023-04-03T13:06:32;16.30;;;15.30;;
23370;SDS011;11858;51.056;3.712;2023-04-03T13:09:04;16.10;;;15.20;;
23370;SDS011;11858;51.056;3.712;2023-04-03T13:11:33;16.13;;;15.13;;
23370;SDS011;11858;51.056;3.712;2023-04-03T13:14:12;16.73;;;15.73;;
23370;SDS011;11858;51.056;3.712;2023-04-03T13:16:45;16.10;;;15.20;;
23370;SDS011;11858;51.056;3.712;2023-04-03T13:19:28;16.38;;;15.40;;
23370;SDS011;11858;51.056;3.712;2023-04-03T13:22:36;16.38;;;15.43;;
23370;SDS011;11858;51.056;3.712;2023-04-03T13:24:51;16.30;;;15.40;;
23370;SDS011;11858;51.056;3.712;2023-04-03T13:27:20;16.85;;;15.85;;
23370;SDS011;11858;51.056;3.712;2023-04-03T13:29:50;16.67;;;15.18;;
23370;SDS011;11858;51.056;3.712;2023-04-03T13:32:20;16.23;;;15.32;;
23370;SDS011;11858;51.056;3.712;2023-04-03T13:34:48;15.43;;;14.53;;
23370;SDS011;11858;51.056;3.712;2023-04-03T13:37:22;16.52;;;15.35;;
23370;SDS011;11858;51.056;3.712;2023-04-03T13:40:14;15.73;;;14.73;;
23370;SDS011;11858;51.056;3.712;2023-04-03T13:42:40;15.88;;;14.98;;
23370;SDS011;11858;51.056;3.712;2023-04-03T13:45:17;15.82;;;14.85;;
23370;SDS011;11858;51.056;3.712;2023-04-03T13:47:51;15.38;;;14.48;;
23370;SDS011;11858;51.056;3.712;2023-04-03T13:50:21;15.70;;;14.80;;
23370;SDS011;11858;51.056;3.712;2023-04-03T13:58:16;15.60;;;14.70;;
23370;SDS011;11858;51.056;3.712;2023-04-03T14:00:51;15.77;;;14.88;;
23370;SDS011;11858;51.056;3.712;2023-04-03T14:05:54;17.88;;;16.88;;
23370;SDS011;11858;51.056;3.712;2023-04-03T14:08:20;17.80;;;16.80;;
23370;SDS011;11858;51.056;3.712;2023-04-03T14:10:47;17.65;;;16.65;;
23370;SDS011;11858;51.056;3.712;2023-04-03T14:13:15;18.38;;;16.67;;
23370;SDS011;11858;51.056;3.712;2023-04-03T14:15:42;17.60;;;16.60;;
23370;SDS011;11858;51.056;3.712;2023-04-03T14:18:11;17.80;;;16.80;;
23370;SDS011;11858;51.056;3.712;2023-04-03T14:20:39;17.90;;;16.90;;
23370;SDS011;11858;51.056;3.712;2023-04-03T14:23:05;18.17;;;17.08;;
23370;SDS011;11858;51.056;3.712;2023-04-03T14:25:32;17.75;;;16.75;;
23370;SDS011;11858;51.056;3.712;2023-04-03T14:27:58;17.45;;;16.45;;
23370;SDS011;11858;51.056;3.712;2023-04-03T14:30:32;18.75;;;17.65;;
23370;SDS011;11858;51.056;3.712;2023-04-03T14:32:59;17.40;;;16.40;;
23370;SDS011;11858;51.056;3.712;2023-04-03T14:35:26;17.67;;;16.67;;
23370;SDS011;11858;51.056;3.712;2023-04-03T14:37:53;18.20;;;17.20;;
23370;SDS011;11858;51.056;3.712;2023-04-03T14:40:20;16.95;;;15.95;;
23370;SDS011;11858;51.056;3.712;2023-04-03T14:42:49;16.45;;;15.55;;
23370;SDS011;11858;51.056;3.712;2023-04-03T14:45:15;17.75;;;16.65;;
23370;SDS011;11858;51.056;3.712;2023-04-03T14:47:49;17.67;;;16.67;;
23370;SDS011;11858;51.056;3.712;2023-04-03T14:50:22;24.10;;;18.30;;
23370;SDS011;11858;51.056;3.712;2023-04-03T14:52:51;17.58;;;16.58;;
23370;SDS011;11858;51.056;3.712;2023-04-03T14:55:20;18.15;;;17.13;;
23370;SDS011;11858;51.056;3.712;2023-04-03T14:57:47;17.98;;;16.98;;
23370;SDS011;11858;51.056;3.712;2023-04-03T15:00:16;18.98;;;17.80;;
23370;SDS011;11858;51.056;3.712;2023-04-03T15:02:44;17.95;;;16.95;;
23370;SDS011;11858;51.056;3.712;2023-04-03T15:05:10;18.05;;;17.05;;
23370;SDS011;11858;51.056;3.712;2023-04-03T15:07:38;17.27;;;16.30;;
23370;SDS011;11858;51.056;3.712;2023-04-03T15:10:23;17.75;;;16.75;;
23370;SDS011;11858;51.056;3.712;2023-04-03T15:12:51;17.40;;;16.40;;
23370;SDS011;11858;51.056;3.712;2023-04-03T15:15:18;18.02;;;17.02;;
23370;SDS011;11858;51.056;3.712;2023-04-03T15:17:45;18.27;;;17.27;;
23370;SDS011;11858;51.056;3.712;2023-04-03T15:20:18;18.90;;;17.80;;
23370;SDS011;11858;51.056;3.712;2023-04-03T15:22:45;17.80;;;16.80;;
23370;SDS011;11858;51.056;3.712;2023-04-03T15:25:11;17.50;;;16.50;;
23370;SDS011;11858;51.056;3.712;2023-04-03T15:27:38;18.25;;;17.25;;
23370;SDS011;11858;51.056;3.712;2023-04-03T15:30:07;18.27;;;17.20;;
23370;SDS011;11858;51.056;3.712;2023-04-03T15:32:36;19.48;;;18.27;;
23370;SDS011;11858;51.056;3.712;2023-04-03T15:35:02;18.48;;;17.38;;
23370;SDS011;11858;51.056;3.712;2023-04-03T15:37:27;19.05;;;17.83;;
23370;SDS011;11858;51.056;3.712;2023-04-03T15:39:53;18.48;;;17.38;;
23370;SDS011;11858;51.056;3.712;2023-04-03T15:42:19;17.25;;;16.25;;
23370;SDS011;11858;51.056;3.712;2023-04-03T15:44:45;18.13;;;17.02;;
23370;SDS011;11858;51.056;3.712;2023-04-03T15:47:11;18.20;;;17.10;;
23370;SDS011;11858;51.056;3.712;2023-04-03T15:49:37;18.30;;;17.20;;
23370;SDS011;11858;51.056;3.712;2023-04-03T15:52:03;18.00;;;16.90;;
23370;SDS011;11858;51.056;3.712;2023-04-03T15:54:29;17.98;;;16.88;;
23370;SDS011;11858;51.056;3.712;2023-04-03T15:56:55;20.08;;;17.58;;
23370;SDS011;11858;51.056;3.712;2023-04-03T15:59:21;18.45;;;17.35;;
23370;SDS011;11858;51.056;3.712;2023-04-03T16:01:47;18.48;;;17.48;;
23370;SDS011;11858;51.056;3.712;2023-04-03T16:04:14;19.10;;;17.90;;
23370;SDS011;11858;51.056;3.712;2023-04-03T16:06:40;19.40;;;18.20;;
23370;SDS011;11858;51.056;3.712;2023-04-03T16:09:07;17.95;;;16.95;;
23370;SDS011;11858;51.056;3.712;2023-04-03T16:11:33;17.60;;;16.60;;
23370;SDS011;11858;51.056;3.712;2023-04-03T16:14:01;18.10;;;17.10;;
23370;SDS011;11858;51.056;3.712;2023-04-03T16:16:27;18.27;;;17.17;;
23370;SDS011;11858;51.056;3.712;2023-04-03T16:18:53;17.77;;;16.77;;
23370;SDS011;11858;51.056;3.712;2023-04-03T16:21:20;17.90;;;16.90;;
23370;SDS011;11858;51.056;3.712;2023-04-03T16:23:46;17.67;;;16.63;;
23370;SDS011;11858;51.056;3.712;2023-04-03T16:26:12;17.13;;;16.02;;
23370;SDS011;11858;51.056;3.712;2023-04-03T16:28:38;16.90;;;15.85;;
23370;SDS011;11858;51.056;3.712;2023-04-03T16:31:04;16.58;;;15.57;;
23370;SDS011;11858;51.056;3.712;2023-04-03T16:33:32;16.52;;;15.63;;
23370;SDS011;11858;51.056;3.712;2023-04-03T16:35:58;17.40;;;16.40;;
23370;SDS011;11858;51.056;3.712;2023-04-03T16:38:24;17.15;;;16.15;;
23370;SDS011;11858;51.056;3.712;2023-04-03T16:40:50;17.27;;;16.27;;
23370;SDS011;11858;51.056;3.712;2023-04-03T16:43:17;17.70;;;16.60;;
23370;SDS011;11858;51.056;3.712;2023-04-03T16:45:43;17.10;;;16.10;;
23370;SDS011;11858;51.056;3.712;2023-04-03T16:48:09;17.80;;;16.80;;